FFT2550 KDEN-KDFW
Flight info
| Callsign | FFT2550 |
|---|---|
| Flight time | 1h 31m |
| Altitude | 33000 |
| Route | SLEEK2 SLEEK EZEEE MDANO VKTRY2 |
| Aircraft | A21N/M-SDE2E3FGHIRWXY/LB1 |
Departure
| Time | 2026-05-08 02:21 |
|---|---|
| Airport | Denver International Airport (KDEN) |
Arrival
| Time | 2026-05-08 03:52 |
|---|---|
| Airport | Dallas Fort Worth International Airport (KDFW) |
| Time | Latitude | Longitude | Altitude | Speed | Heading |
|---|---|---|---|---|---|
| 2026-05-08 01:35 | 39.85473 | -104.66755 | 5389 ft | 0 kts | 180° |
| 2026-05-08 02:14 | 39.85474 | -104.66755 | 5389 ft | 0 kts | 180° |
| 2026-05-08 02:15 | 39.85481 | -104.66755 | 5389 ft | 2 kts | 180° |
| 2026-05-08 02:15 | 39.85506 | -104.66755 | 5389 ft | 3 kts | 180° |
| 2026-05-08 02:15 | 39.85521 | -104.66755 | 5387 ft | 3 kts | 180° |
| 2026-05-08 02:16 | 39.85526 | -104.66755 | 5388 ft | 0 kts | 180° |
| 2026-05-08 02:17 | 39.85522 | -104.66754 | 5388 ft | 3 kts | 163° |
| 2026-05-08 02:17 | 39.85520 | -104.66686 | 5385 ft | 12 kts | 78° |
| 2026-05-08 02:17 | 39.85568 | -104.66581 | 5387 ft | 16 kts | 45° |
| 2026-05-08 02:18 | 39.85669 | -104.66477 | 5386 ft | 21 kts | 54° |
| 2026-05-08 02:18 | 39.85678 | -104.66283 | 5393 ft | 24 kts | 60° |
| 2026-05-08 02:18 | 39.85835 | -104.66232 | 5393 ft | 26 kts | 358° |
| 2026-05-08 02:18 | 39.86029 | -104.66233 | 5392 ft | 29 kts | 1° |
| 2026-05-08 02:19 | 39.86243 | -104.66226 | 5387 ft | 33 kts | 0° |
| 2026-05-08 02:19 | 39.86483 | -104.66225 | 5386 ft | 36 kts | 0° |
| 2026-05-08 02:19 | 39.86735 | -104.66222 | 5382 ft | 37 kts | 1° |
| 2026-05-08 02:19 | 39.86995 | -104.66217 | 5373 ft | 38 kts | 0° |
| 2026-05-08 02:20 | 39.87262 | -104.66214 | 5368 ft | 39 kts | 359° |
| 2026-05-08 02:20 | 39.87537 | -104.66213 | 5365 ft | 40 kts | 0° |
| 2026-05-08 02:20 | 39.87696 | -104.66210 | 5365 ft | 14 kts | 5° |
| 2026-05-08 02:20 | 39.87746 | -104.66198 | 5366 ft | 6 kts | 43° |
| 2026-05-08 02:21 | 39.87753 | -104.65886 | 5362 ft | 79 kts | 93° |
| 2026-05-08 02:21 | 39.87742 | -104.64739 | 5349 ft | 164 kts | 91° |
| 2026-05-08 02:21 | 39.87727 | -104.63091 | 5800 ft | 184 kts | 91° |
| 2026-05-08 02:21 | 39.87637 | -104.61417 | 6677 ft | 195 kts | 99° |
| 2026-05-08 02:22 | 39.87059 | -104.59682 | 7202 ft | 220 kts | 114° |
| 2026-05-08 02:22 | 39.86594 | -104.57619 | 7619 ft | 257 kts | 94° |
| 2026-05-08 02:22 | 39.86213 | -104.55225 | 8224 ft | 286 kts | 111° |
| 2026-05-08 02:22 | 39.85355 | -104.52789 | 9052 ft | 305 kts | 115° |
| 2026-05-08 02:23 | 39.84467 | -104.50289 | 9676 ft | 312 kts | 114° |
| 2026-05-08 02:23 | 39.83591 | -104.47659 | 9998 ft | 330 kts | 112° |
| 2026-05-08 02:23 | 39.82690 | -104.44823 | 10066 ft | 342 kts | 111° |
| 2026-05-08 02:23 | 39.81761 | -104.41977 | 10055 ft | 342 kts | 116° |
| 2026-05-08 02:24 | 39.80326 | -104.39539 | 10035 ft | 341 kts | 140° |
| 2026-05-08 02:24 | 39.78282 | -104.38101 | 10679 ft | 335 kts | 165° |
| 2026-05-08 02:24 | 39.76018 | -104.37294 | 11769 ft | 339 kts | 169° |
| 2026-05-08 02:24 | 39.73722 | -104.36514 | 12883 ft | 344 kts | 169° |
| 2026-05-08 02:25 | 39.71357 | -104.36079 | 13942 ft | 343 kts | 186° |
| 2026-05-08 02:25 | 39.69043 | -104.36686 | 14909 ft | 340 kts | 205° |
| 2026-05-08 02:25 | 39.66842 | -104.37847 | 15892 ft | 344 kts | 208° |
| 2026-05-08 02:25 | 39.64623 | -104.39070 | 16898 ft | 349 kts | 208° |
| 2026-05-08 02:26 | 39.62365 | -104.40296 | 17872 ft | 355 kts | 208° |
| 2026-05-08 02:26 | 39.60066 | -104.41525 | 18752 ft | 360 kts | 207° |
| 2026-05-08 02:26 | 39.57730 | -104.42760 | 19571 ft | 364 kts | 207° |
| 2026-05-08 02:26 | 39.55361 | -104.43994 | 20362 ft | 370 kts | 206° |
| 2026-05-08 02:27 | 39.52842 | -104.44886 | 21141 ft | 382 kts | 193° |
| 2026-05-08 02:27 | 39.50152 | -104.44959 | 21888 ft | 395 kts | 178° |
| 2026-05-08 02:27 | 39.47416 | -104.44367 | 22654 ft | 402 kts | 173° |
| 2026-05-08 02:27 | 39.44654 | -104.43637 | 23385 ft | 407 kts | 172° |
| 2026-05-08 02:28 | 39.41857 | -104.42908 | 24013 ft | 412 kts | 173° |
| 2026-05-08 02:28 | 39.39031 | -104.42200 | 24634 ft | 416 kts | 173° |
| 2026-05-08 02:28 | 39.36177 | -104.41499 | 25251 ft | 419 kts | 174° |
| 2026-05-08 02:28 | 39.33308 | -104.40803 | 25940 ft | 420 kts | 174° |
| 2026-05-08 02:29 | 39.30438 | -104.40111 | 26701 ft | 419 kts | 174° |
| 2026-05-08 02:29 | 39.27577 | -104.39422 | 27456 ft | 418 kts | 174° |
| 2026-05-08 02:29 | 39.24725 | -104.38736 | 28203 ft | 417 kts | 175° |
| 2026-05-08 02:29 | 39.21880 | -104.38051 | 28945 ft | 416 kts | 175° |
| 2026-05-08 02:30 | 39.19037 | -104.37370 | 29667 ft | 415 kts | 175° |
| 2026-05-08 02:30 | 39.16202 | -104.36694 | 30322 ft | 415 kts | 175° |
| 2026-05-08 02:30 | 39.13366 | -104.35955 | 30813 ft | 418 kts | 172° |
| 2026-05-08 02:30 | 39.10539 | -104.35059 | 31328 ft | 419 kts | 171° |
| 2026-05-08 02:31 | 39.07713 | -104.34146 | 31819 ft | 419 kts | 171° |
| 2026-05-08 02:31 | 39.04878 | -104.33236 | 32312 ft | 420 kts | 171° |
| 2026-05-08 02:31 | 39.02044 | -104.32327 | 32788 ft | 421 kts | 171° |
| 2026-05-08 02:31 | 38.99198 | -104.31417 | 33027 ft | 420 kts | 171° |
| 2026-05-08 02:32 | 38.93587 | -104.29633 | 33049 ft | 417 kts | 172° |
| 2026-05-08 02:32 | 38.87976 | -104.27842 | 33011 ft | 415 kts | 171° |
| 2026-05-08 02:33 | 38.82365 | -104.26059 | 32995 ft | 415 kts | 171° |
| 2026-05-08 02:33 | 38.76758 | -104.24288 | 32968 ft | 415 kts | 171° |
| 2026-05-08 02:34 | 38.71152 | -104.22499 | 32937 ft | 415 kts | 171° |
| 2026-05-08 02:34 | 38.65550 | -104.20725 | 32918 ft | 414 kts | 171° |
| 2026-05-08 02:35 | 38.59947 | -104.18955 | 32917 ft | 415 kts | 171° |
| 2026-05-08 02:35 | 38.54346 | -104.17188 | 32916 ft | 415 kts | 171° |
| 2026-05-08 02:36 | 38.49008 | -104.14466 | 32909 ft | 424 kts | 147° |
| 2026-05-08 02:36 | 38.44489 | -104.09646 | 32898 ft | 423 kts | 140° |
| 2026-05-08 02:37 | 38.40031 | -104.04747 | 32913 ft | 423 kts | 141° |
| 2026-05-08 02:37 | 38.35538 | -103.99903 | 32907 ft | 423 kts | 141° |
| 2026-05-08 02:38 | 38.31039 | -103.95075 | 32900 ft | 423 kts | 141° |
| 2026-05-08 02:38 | 38.26541 | -103.90257 | 32899 ft | 421 kts | 141° |
| 2026-05-08 02:39 | 38.22056 | -103.85458 | 32931 ft | 421 kts | 141° |
| 2026-05-08 02:39 | 38.17574 | -103.80672 | 32924 ft | 421 kts | 141° |
| 2026-05-08 02:40 | 38.13091 | -103.75894 | 32928 ft | 421 kts | 141° |
| 2026-05-08 02:40 | 38.08604 | -103.71120 | 32938 ft | 421 kts | 142° |
| 2026-05-08 02:41 | 38.04136 | -103.66369 | 32944 ft | 418 kts | 141° |
| 2026-05-08 02:41 | 37.99674 | -103.61631 | 32959 ft | 418 kts | 141° |
| 2026-05-08 02:42 | 37.95204 | -103.56898 | 32906 ft | 418 kts | 141° |
| 2026-05-08 02:42 | 37.90734 | -103.52166 | 32903 ft | 418 kts | 141° |
| 2026-05-08 02:43 | 37.86260 | -103.47446 | 32887 ft | 418 kts | 142° |
| 2026-05-08 02:43 | 37.82184 | -103.43149 | 32882 ft | 417 kts | 142° |
| 2026-05-08 02:44 | 37.77729 | -103.38461 | 32890 ft | 417 kts | 142° |
| 2026-05-08 02:44 | 37.73273 | -103.33777 | 32893 ft | 417 kts | 142° |
| 2026-05-08 02:45 | 37.68811 | -103.29096 | 32897 ft | 417 kts | 142° |
| 2026-05-08 02:45 | 37.64353 | -103.24426 | 32897 ft | 417 kts | 142° |
| 2026-05-08 02:46 | 37.59920 | -103.19790 | 32895 ft | 416 kts | 142° |
| 2026-05-08 02:46 | 37.55462 | -103.15128 | 32897 ft | 416 kts | 142° |
| 2026-05-08 02:47 | 37.51019 | -103.10488 | 32900 ft | 414 kts | 142° |
| 2026-05-08 02:47 | 37.46583 | -103.05872 | 32897 ft | 414 kts | 142° |
| 2026-05-08 02:48 | 37.42164 | -103.01277 | 32897 ft | 411 kts | 142° |
| 2026-05-08 02:48 | 37.37754 | -102.96701 | 32905 ft | 411 kts | 142° |
| 2026-05-08 02:49 | 37.33344 | -102.92133 | 32904 ft | 411 kts | 142° |
| 2026-05-08 02:49 | 37.28928 | -102.87565 | 32903 ft | 411 kts | 142° |
| 2026-05-08 02:50 | 37.24513 | -102.83005 | 32885 ft | 410 kts | 142° |
| 2026-05-08 02:50 | 37.20109 | -102.78464 | 32899 ft | 410 kts | 142° |
| 2026-05-08 02:51 | 37.15697 | -102.73921 | 32907 ft | 411 kts | 142° |
| 2026-05-08 02:51 | 37.11274 | -102.69372 | 32904 ft | 411 kts | 142° |
| 2026-05-08 02:52 | 37.06849 | -102.64829 | 32901 ft | 411 kts | 142° |
| 2026-05-08 02:52 | 37.02418 | -102.60287 | 32899 ft | 411 kts | 142° |
| 2026-05-08 02:53 | 36.97991 | -102.55759 | 32903 ft | 411 kts | 142° |
| 2026-05-08 02:53 | 36.93556 | -102.51231 | 32908 ft | 411 kts | 142° |
| 2026-05-08 02:54 | 36.89121 | -102.46706 | 32907 ft | 411 kts | 142° |
| 2026-05-08 02:54 | 36.84690 | -102.42190 | 32912 ft | 411 kts | 142° |
| 2026-05-08 02:55 | 36.78083 | -102.35474 | 32912 ft | 404 kts | 143° |
| 2026-05-08 02:56 | 36.73751 | -102.31081 | 32918 ft | 404 kts | 143° |
| 2026-05-08 02:56 | 36.69361 | -102.26632 | 32923 ft | 404 kts | 143° |
| 2026-05-08 02:57 | 36.65027 | -102.22248 | 32926 ft | 404 kts | 143° |
| 2026-05-08 02:57 | 36.60658 | -102.17846 | 32898 ft | 404 kts | 144° |
| 2026-05-08 02:58 | 36.56229 | -102.13552 | 32917 ft | 403 kts | 144° |
| 2026-05-08 02:58 | 36.51765 | -102.09340 | 32927 ft | 403 kts | 145° |
| 2026-05-08 02:59 | 36.47337 | -102.05069 | 32932 ft | 403 kts | 143° |
| 2026-05-08 02:59 | 36.42971 | -102.00683 | 32939 ft | 404 kts | 143° |
| 2026-05-08 03:00 | 36.38611 | -101.96275 | 32921 ft | 404 kts | 143° |
| 2026-05-08 03:00 | 36.34267 | -101.91885 | 32935 ft | 402 kts | 143° |
| 2026-05-08 03:01 | 36.29956 | -101.87535 | 32939 ft | 402 kts | 143° |
| 2026-05-08 03:01 | 36.25594 | -101.83138 | 32934 ft | 402 kts | 144° |
| 2026-05-08 03:02 | 36.21273 | -101.78825 | 32939 ft | 402 kts | 144° |
| 2026-05-08 03:02 | 36.16905 | -101.74508 | 32931 ft | 402 kts | 144° |
| 2026-05-08 03:03 | 36.13286 | -101.70871 | 32931 ft | 400 kts | 142° |
| 2026-05-08 03:03 | 36.09087 | -101.66344 | 32941 ft | 400 kts | 143° |
| 2026-05-08 03:04 | 36.04816 | -101.62013 | 32939 ft | 400 kts | 145° |
| 2026-05-08 03:04 | 36.00478 | -101.57714 | 32938 ft | 400 kts | 145° |
| 2026-05-08 03:05 | 35.96138 | -101.53427 | 32941 ft | 400 kts | 145° |
| 2026-05-08 03:05 | 35.91804 | -101.49148 | 32934 ft | 398 kts | 147° |
| 2026-05-08 03:06 | 35.87483 | -101.44889 | 32945 ft | 398 kts | 147° |
| 2026-05-08 03:06 | 35.83155 | -101.40631 | 32995 ft | 397 kts | 147° |
| 2026-05-08 03:07 | 35.78978 | -101.36153 | 33010 ft | 401 kts | 140° |
| 2026-05-08 03:07 | 35.75080 | -101.31221 | 33010 ft | 402 kts | 139° |
| 2026-05-08 03:08 | 35.71174 | -101.26302 | 32983 ft | 403 kts | 142° |
| 2026-05-08 03:08 | 35.67237 | -101.21383 | 33008 ft | 404 kts | 142° |
| 2026-05-08 03:09 | 35.63295 | -101.16471 | 33024 ft | 404 kts | 142° |
| 2026-05-08 03:09 | 35.59348 | -101.11560 | 33037 ft | 403 kts | 142° |
| 2026-05-08 03:10 | 35.55404 | -101.06655 | 33041 ft | 404 kts | 142° |
| 2026-05-08 03:10 | 35.51454 | -101.01759 | 33037 ft | 404 kts | 142° |
| 2026-05-08 03:11 | 35.47502 | -100.96863 | 33026 ft | 404 kts | 142° |
| 2026-05-08 03:11 | 35.43548 | -100.91974 | 33011 ft | 404 kts | 142° |
| 2026-05-08 03:12 | 35.39600 | -100.87086 | 32998 ft | 404 kts | 142° |
| 2026-05-08 03:12 | 35.35646 | -100.82201 | 32984 ft | 403 kts | 142° |
| 2026-05-08 03:13 | 35.31690 | -100.77326 | 32969 ft | 403 kts | 142° |
| 2026-05-08 03:13 | 35.27732 | -100.72455 | 32966 ft | 403 kts | 142° |
| 2026-05-08 03:14 | 35.23766 | -100.67585 | 32959 ft | 404 kts | 144° |
| 2026-05-08 03:14 | 35.19818 | -100.62741 | 32968 ft | 405 kts | 144° |
| 2026-05-08 03:15 | 35.15837 | -100.57868 | 32968 ft | 405 kts | 144° |
| 2026-05-08 03:15 | 35.11849 | -100.52992 | 32968 ft | 407 kts | 145° |
| 2026-05-08 03:16 | 35.07848 | -100.48101 | 32964 ft | 407 kts | 145° |
| 2026-05-08 03:16 | 35.03843 | -100.43215 | 32939 ft | 406 kts | 146° |
| 2026-05-08 03:17 | 34.99848 | -100.38352 | 32962 ft | 406 kts | 147° |
| 2026-05-08 03:17 | 34.95846 | -100.33494 | 32965 ft | 406 kts | 147° |
| 2026-05-08 03:18 | 34.91845 | -100.28639 | 32964 ft | 406 kts | 147° |
| 2026-05-08 03:18 | 34.87844 | -100.23792 | 32964 ft | 406 kts | 147° |
| 2026-05-08 03:19 | 34.83845 | -100.18942 | 32951 ft | 406 kts | 147° |
| 2026-05-08 03:19 | 34.79850 | -100.14106 | 32945 ft | 403 kts | 148° |
| 2026-05-08 03:20 | 34.75871 | -100.09308 | 32964 ft | 402 kts | 148° |
| 2026-05-08 03:20 | 34.71920 | -100.04549 | 32965 ft | 402 kts | 148° |
| 2026-05-08 03:21 | 34.67940 | -99.99763 | 32966 ft | 402 kts | 148° |
| 2026-05-08 03:21 | 34.63963 | -99.94979 | 32968 ft | 402 kts | 148° |
| 2026-05-08 03:22 | 34.59983 | -99.90199 | 32964 ft | 402 kts | 148° |
| 2026-05-08 03:22 | 34.55970 | -99.85398 | 32957 ft | 415 kts | 148° |
| 2026-05-08 03:22 | 34.53872 | -99.82900 | 32966 ft | 429 kts | 148° |
| 2026-05-08 03:23 | 34.51713 | -99.80323 | 32976 ft | 443 kts | 147° |
| 2026-05-08 03:23 | 34.49489 | -99.77665 | 32978 ft | 456 kts | 147° |
| 2026-05-08 03:23 | 34.47197 | -99.74926 | 32980 ft | 468 kts | 147° |
| 2026-05-08 03:23 | 34.44843 | -99.72121 | 32988 ft | 480 kts | 146° |
| 2026-05-08 03:24 | 34.42432 | -99.69243 | 32987 ft | 492 kts | 146° |
| 2026-05-08 03:24 | 34.37546 | -99.63401 | 32981 ft | 495 kts | 146° |
| 2026-05-08 03:25 | 34.32778 | -99.57409 | 32959 ft | 508 kts | 138° |
| 2026-05-08 03:25 | 34.30825 | -99.53776 | 32975 ft | 520 kts | 130° |
| 2026-05-08 03:25 | 34.29033 | -99.49974 | 32981 ft | 521 kts | 129° |
| 2026-05-08 03:26 | 34.25466 | -99.42348 | 32987 ft | 523 kts | 129° |
| 2026-05-08 03:26 | 34.21840 | -99.34725 | 32988 ft | 523 kts | 129° |
| 2026-05-08 03:27 | 34.18204 | -99.27116 | 32986 ft | 523 kts | 129° |
| 2026-05-08 03:27 | 34.14565 | -99.19512 | 32994 ft | 523 kts | 129° |
| 2026-05-08 03:28 | 34.10928 | -99.11924 | 32983 ft | 521 kts | 130° |
| 2026-05-08 03:28 | 34.07295 | -99.04363 | 33006 ft | 520 kts | 130° |
| 2026-05-08 03:29 | 34.03661 | -98.96844 | 32995 ft | 519 kts | 130° |
| 2026-05-08 03:29 | 34.00062 | -98.89369 | 32998 ft | 519 kts | 130° |
| 2026-05-08 03:30 | 33.94622 | -98.78132 | 32533 ft | 520 kts | 130° |
| 2026-05-08 03:30 | 33.90975 | -98.70615 | 31186 ft | 515 kts | 130° |
| 2026-05-08 03:31 | 33.87373 | -98.63220 | 29195 ft | 507 kts | 129° |
| 2026-05-08 03:31 | 33.83829 | -98.56037 | 27613 ft | 492 kts | 128° |
| 2026-05-08 03:32 | 33.82094 | -98.52528 | 26887 ft | 485 kts | 128° |
| 2026-05-08 03:32 | 33.80393 | -98.49057 | 26195 ft | 478 kts | 127° |
| 2026-05-08 03:32 | 33.78722 | -98.45624 | 25504 ft | 472 kts | 126° |
| 2026-05-08 03:32 | 33.77075 | -98.42244 | 24763 ft | 463 kts | 126° |
| 2026-05-08 03:33 | 33.75478 | -98.38964 | 24082 ft | 447 kts | 125° |
| 2026-05-08 03:33 | 33.73930 | -98.35793 | 23403 ft | 433 kts | 124° |
| 2026-05-08 03:33 | 33.72404 | -98.32681 | 22696 ft | 430 kts | 125° |
| 2026-05-08 03:33 | 33.70902 | -98.29621 | 22029 ft | 422 kts | 125° |
| 2026-05-08 03:34 | 33.69414 | -98.26593 | 21426 ft | 418 kts | 125° |
| 2026-05-08 03:34 | 33.67948 | -98.23604 | 20808 ft | 412 kts | 125° |
| 2026-05-08 03:34 | 33.66500 | -98.20656 | 20178 ft | 408 kts | 126° |
| 2026-05-08 03:34 | 33.65065 | -98.17736 | 19577 ft | 404 kts | 126° |
| 2026-05-08 03:35 | 33.63638 | -98.14842 | 18990 ft | 401 kts | 126° |
| 2026-05-08 03:35 | 33.62222 | -98.11980 | 18510 ft | 397 kts | 126° |
| 2026-05-08 03:35 | 33.60818 | -98.09156 | 18015 ft | 392 kts | 126° |
| 2026-05-08 03:35 | 33.59431 | -98.06368 | 17539 ft | 387 kts | 126° |
| 2026-05-08 03:36 | 33.58058 | -98.03611 | 17075 ft | 382 kts | 126° |
| 2026-05-08 03:36 | 33.56719 | -98.00924 | 16611 ft | 378 kts | 126° |
| 2026-05-08 03:36 | 33.55485 | -97.98449 | 16216 ft | 375 kts | 125° |
| 2026-05-08 03:36 | 33.54152 | -97.95773 | 15782 ft | 373 kts | 125° |
| 2026-05-08 03:37 | 33.52824 | -97.93116 | 15354 ft | 370 kts | 124° |
| 2026-05-08 03:37 | 33.51509 | -97.90484 | 14988 ft | 366 kts | 124° |
| 2026-05-08 03:37 | 33.50208 | -97.87878 | 14625 ft | 363 kts | 124° |
| 2026-05-08 03:37 | 33.48918 | -97.85295 | 14234 ft | 361 kts | 124° |
| 2026-05-08 03:38 | 33.47631 | -97.82718 | 13831 ft | 359 kts | 123° |
| 2026-05-08 03:38 | 33.46354 | -97.80158 | 13385 ft | 358 kts | 123° |
| 2026-05-08 03:38 | 33.45084 | -97.77608 | 12955 ft | 355 kts | 123° |
| 2026-05-08 03:38 | 33.43821 | -97.75079 | 12524 ft | 352 kts | 123° |
| 2026-05-08 03:39 | 33.42571 | -97.72574 | 12139 ft | 349 kts | 123° |
| 2026-05-08 03:39 | 33.41350 | -97.70128 | 11809 ft | 335 kts | 123° |
| 2026-05-08 03:39 | 33.40183 | -97.67793 | 11577 ft | 319 kts | 123° |
| 2026-05-08 03:39 | 33.39055 | -97.65541 | 11291 ft | 313 kts | 124° |
| 2026-05-08 03:40 | 33.37901 | -97.63396 | 10953 ft | 309 kts | 129° |
| 2026-05-08 03:40 | 33.36641 | -97.61329 | 10597 ft | 307 kts | 129° |
| 2026-05-08 03:40 | 33.35378 | -97.59284 | 10259 ft | 304 kts | 129° |
| 2026-05-08 03:40 | 33.34129 | -97.57258 | 9928 ft | 301 kts | 130° |
| 2026-05-08 03:41 | 33.32897 | -97.55257 | 9568 ft | 297 kts | 130° |
| 2026-05-08 03:41 | 33.31680 | -97.53280 | 9215 ft | 294 kts | 130° |
| 2026-05-08 03:41 | 33.30474 | -97.51324 | 8871 ft | 291 kts | 130° |
| 2026-05-08 03:41 | 33.29278 | -97.49385 | 8513 ft | 288 kts | 129° |
| 2026-05-08 03:42 | 33.28096 | -97.47464 | 8189 ft | 285 kts | 128° |
| 2026-05-08 03:42 | 33.27200 | -97.45364 | 7860 ft | 286 kts | 107° |
| 2026-05-08 03:42 | 33.26952 | -97.43010 | 7544 ft | 284 kts | 95° |
| 2026-05-08 03:42 | 33.26858 | -97.40662 | 7223 ft | 281 kts | 94° |
| 2026-05-08 03:43 | 33.26764 | -97.38337 | 6904 ft | 279 kts | 94° |
| 2026-05-08 03:43 | 33.26660 | -97.36034 | 6598 ft | 276 kts | 95° |
| 2026-05-08 03:43 | 33.26551 | -97.33792 | 6293 ft | 272 kts | 95° |
| 2026-05-08 03:43 | 33.26166 | -97.31536 | 5983 ft | 278 kts | 114° |
| 2026-05-08 03:44 | 33.25273 | -97.29513 | 5684 ft | 268 kts | 122° |
| 2026-05-08 03:44 | 33.24328 | -97.27640 | 5395 ft | 266 kts | 123° |
| 2026-05-08 03:44 | 33.23364 | -97.25767 | 5090 ft | 264 kts | 123° |
| 2026-05-08 03:44 | 33.22405 | -97.23915 | 4777 ft | 261 kts | 123° |
| 2026-05-08 03:45 | 33.21447 | -97.22088 | 4453 ft | 258 kts | 123° |
| 2026-05-08 03:45 | 33.20501 | -97.20279 | 4117 ft | 255 kts | 123° |
| 2026-05-08 03:45 | 33.19585 | -97.18509 | 3821 ft | 246 kts | 123° |
| 2026-05-08 03:45 | 33.18694 | -97.16792 | 3493 ft | 241 kts | 123° |
| 2026-05-08 03:46 | 33.17818 | -97.15108 | 3130 ft | 239 kts | 123° |
| 2026-05-08 03:46 | 33.16945 | -97.13426 | 3000 ft | 238 kts | 123° |
| 2026-05-08 03:46 | 33.15939 | -97.11876 | 2984 ft | 236 kts | 137° |
| 2026-05-08 03:46 | 33.14743 | -97.10539 | 2994 ft | 235 kts | 139° |
| 2026-05-08 03:47 | 33.13411 | -97.09413 | 3002 ft | 236 kts | 147° |
| 2026-05-08 03:47 | 33.12042 | -97.08383 | 3002 ft | 225 kts | 149° |
| 2026-05-08 03:47 | 33.10715 | -97.07409 | 2919 ft | 221 kts | 149° |
| 2026-05-08 03:47 | 33.09417 | -97.06452 | 2546 ft | 215 kts | 149° |
| 2026-05-08 03:48 | 33.08172 | -97.05628 | 2316 ft | 194 kts | 162° |
| 2026-05-08 03:48 | 33.06916 | -97.05339 | 2286 ft | 178 kts | 175° |
| 2026-05-08 03:48 | 33.05681 | -97.05358 | 2282 ft | 178 kts | 182° |
| 2026-05-08 03:48 | 33.04443 | -97.05383 | 2291 ft | 178 kts | 180° |
| 2026-05-08 03:49 | 33.03207 | -97.05395 | 2299 ft | 178 kts | 180° |
| 2026-05-08 03:49 | 33.01973 | -97.05403 | 2298 ft | 177 kts | 180° |
| 2026-05-08 03:49 | 33.00737 | -97.05410 | 2298 ft | 177 kts | 179° |
| 2026-05-08 03:49 | 32.99533 | -97.05416 | 2220 ft | 166 kts | 179° |
| 2026-05-08 03:50 | 32.98409 | -97.05422 | 2019 ft | 158 kts | 179° |
| 2026-05-08 03:50 | 32.97359 | -97.05427 | 1814 ft | 140 kts | 180° |
| 2026-05-08 03:50 | 32.96490 | -97.05432 | 1611 ft | 119 kts | 180° |
| 2026-05-08 03:50 | 32.95669 | -97.05436 | 1433 ft | 119 kts | 179° |
| 2026-05-08 03:51 | 32.94849 | -97.05440 | 1282 ft | 118 kts | 180° |
| 2026-05-08 03:51 | 32.94022 | -97.05444 | 1138 ft | 120 kts | 180° |
| 2026-05-08 03:51 | 32.93189 | -97.05456 | 990 ft | 119 kts | 180° |
| 2026-05-08 03:51 | 32.92359 | -97.05462 | 817 ft | 119 kts | 179° |
| 2026-05-08 03:52 | 32.91529 | -97.05467 | 658 ft | 119 kts | 180° |
| 2026-05-08 03:52 | 32.90784 | -97.05472 | 621 ft | 85 kts | 179° |
| 2026-05-08 03:52 | 32.90338 | -97.05474 | 618 ft | 52 kts | 181° |
| 2026-05-08 03:52 | 32.90023 | -97.05445 | 618 ft | 35 kts | 156° |
| 2026-05-08 03:53 | 32.89874 | -97.05349 | 611 ft | 19 kts | 148° |
| 2026-05-08 03:53 | 32.89768 | -97.05239 | 611 ft | 23 kts | 92° |
| 2026-05-08 03:53 | 32.89760 | -97.05038 | 608 ft | 27 kts | 92° |
| 2026-05-08 03:53 | 32.89758 | -97.04808 | 604 ft | 29 kts | 90° |